Date,TemperatureHighF,TemperatureAvgF,TemperatureLowF,DewpointHighF,DewpointAvgF,DewpointLowF,HumidityHigh,HumidityAvg,HumidityLow,PressureMaxIn,PressureMinIn,WindSpeedMaxMPH,WindSpeedAvgMPH,GustSpeedMaxMPH,PrecipitationSumIn
2013-3-1,76,59,43,21,14,7,26,18,9,0.00,40.00,17,4,17,0.00
2013-3-2,78,62,44,25,20,11,36,21,8,0.00,40.00,22,4,23,0.00
2013-3-3,73,65,57,38,31,24,39,28,21,0.00,40.00,41,16,41,0.00
2013-3-4,73,62,52,33,28,21,48,29,14,0.00,40.00,12,4,13,0.00
2013-3-5,74,60,46,35,27,20,46,30,18,0.00,40.00,38,9,39,0.00
2013-3-6,64,56,49,36,31,26,60,40,26,0.00,40.00,51,18,51,0.00
2013-3-7,61,53,47,37,32,24,61,46,25,0.00,40.00,34,13,35,0.00
2013-3-8,50,45,39,40,35,29,86,71,50,0.00,40.00,19,4,19,0.27
2013-3-9,67,52,35,38,30,13,86,49,19,0.00,40.00,18,4,19,0.00
2013-3-10,71,59,46,25,12,0,31,17,7,0.00,40.00,16,4,16,0.00
2013-3-11,76,60,41,28,19,5,59,26,7,0.00,40.00,14,3,14,0.00
2013-3-12,80,64,47,28,20,8,45,22,7,0.00,40.00,14,3,15,0.00
2013-3-13,85,66,48,31,25,17,49,24,10,0.00,40.00,13,2,13,0.00
2013-3-14,89,70,50,36,28,19,47,23,9,0.00,40.00,15,3,16,0.00
2013-3-15,90,75,65,40,33,9,40,24,5,0.00,40.00,41,10,41,0.00
2013-3-16,87,73,60,39,29,11,39,23,7,0.00,40.00,36,9,36,0.00
2013-3-17,83,70,59,30,22,8,26,18,6,0.00,40.00,42,12,42,0.00
2013-3-18,79,67,52,30,22,11,36,20,8,0.00,40.00,27,6,29,0.00
2013-3-19,82,71,61,32,26,17,27,19,10,0.00,40.00,26,8,26,0.00
2013-3-20,78,69,63,38,32,23,35,26,16,0.00,40.00,52,20,54,0.00
2013-3-21,80,67,56,36,28,16,41,25,9,0.00,40.00,34,8,34,0.00
2013-3-22,77,64,54,33,22,-2,38,22,5,0.00,40.00,22,6,22,0.00
2013-3-23,72,61,48,25,10,-9,32,16,4,0.00,40.00,24,6,24,0.00
2013-3-24,76,62,45,30,11,-4,31,16,5,0.00,40.00,17,3,17,0.00
2013-3-25,80,66,52,30,22,5,41,21,9,0.00,40.00,25,4,26,0.00
2013-3-26,79,69,61,32,23,4,30,18,9,0.00,40.00,42,13,42,0.00
2013-3-27,79,67,57,35,31,23,37,27,13,0.00,40.00,40,9,40,0.00
2013-3-28,80,68,60,38,33,26,42,29,14,0.00,40.00,34,10,35,0.00
2013-3-29,82,70,55,39,29,10,41,25,7,0.00,40.00,23,6,25,0.00
2013-3-30,83,72,63,39,31,18,35,24,10,0.00,40.00,28,7,29,0.00
2013-3-31,76,65,58,46,39,28,59,40,20,0.00,40.00,38,14,39,0.00